createdAt,value
2017-11-10T00:00:44.639Z,1007.46
2017-11-10T00:01:44.658Z,1007.44
2017-11-10T00:02:44.657Z,1007.39
2017-11-10T00:03:44.687Z,1007.42
2017-11-10T00:04:44.696Z,1007.45
2017-11-10T00:05:44.717Z,1007.4
2017-11-10T00:06:44.738Z,1007.38
2017-11-10T00:07:44.741Z,1007.4
2017-11-10T00:08:44.857Z,1007.42
2017-11-10T00:09:44.810Z,1007.4
2017-11-10T00:10:44.749Z,1007.42
2017-11-10T00:11:44.843Z,1007.4
2017-11-10T00:12:44.878Z,1007.4
2017-11-10T00:13:44.837Z,1007.4
2017-11-10T00:14:44.847Z,1007.33
2017-11-10T00:15:44.823Z,1007.29
2017-11-10T00:16:44.830Z,1007.32
2017-11-10T00:17:44.845Z,1007.25
2017-11-10T00:18:44.858Z,1007.3
2017-11-10T00:19:44.871Z,1007.3
2017-11-10T00:20:44.889Z,1007.3
2017-11-10T00:21:44.903Z,1007.33
2017-11-10T00:22:44.915Z,1007.33
2017-11-10T00:23:44.932Z,1007.3
2017-11-10T00:24:44.947Z,1007.31
2017-11-10T00:25:44.960Z,1007.29
2017-11-10T00:26:44.979Z,1007.23
2017-11-10T00:27:44.992Z,1007.22
2017-11-10T00:28:45.007Z,1007.19
2017-11-10T00:29:45.020Z,1007.18
2017-11-10T00:30:45.033Z,1007.2
2017-11-10T00:31:45.048Z,1007.16
2017-11-10T00:32:45.062Z,1007.17
2017-11-10T00:33:45.079Z,1007.16
2017-11-10T00:34:45.091Z,1007.11
2017-11-10T00:35:45.105Z,1007.15
2017-11-10T00:36:45.123Z,1007.17
2017-11-10T00:37:45.137Z,1007.21
2017-11-10T00:38:45.151Z,1007.23
2017-11-10T00:39:45.167Z,1007.22
2017-11-10T00:40:45.180Z,1007.22
2017-11-10T00:41:45.227Z,1007.19
2017-11-10T00:42:45.210Z,1007.22
2017-11-10T00:43:45.236Z,1007.22
2017-11-10T00:44:45.240Z,1007.16
2017-11-10T00:45:45.254Z,1007.18
2017-11-10T00:46:45.328Z,1007.19
2017-11-10T00:47:45.342Z,1007.16
2017-11-10T00:48:45.296Z,1007.12
2017-11-10T00:49:45.320Z,1007.13
2017-11-10T00:50:45.328Z,1007.14
2017-11-10T00:51:45.339Z,1007.15
2017-11-10T00:52:45.357Z,1007.18
2017-11-10T00:53:45.369Z,1007.18
2017-11-10T00:54:45.384Z,1007.2
2017-11-10T00:55:45.400Z,1007.2
2017-11-10T00:56:45.413Z,1007.21
2017-11-10T00:57:45.428Z,1007.24
2017-11-10T00:58:45.443Z,1007.23
2017-11-10T00:59:45.476Z,1007.21
2017-11-10T01:00:45.472Z,1007.2
2017-11-10T01:01:45.486Z,1007.22
2017-11-10T01:02:45.501Z,1007.2
2017-11-10T01:03:45.514Z,1007.23
2017-11-10T01:04:45.530Z,1007.19
2017-11-10T01:05:45.544Z,1007.15
2017-11-10T01:06:45.559Z,1007.2
2017-11-10T01:07:45.573Z,1007.18
2017-11-10T01:08:45.588Z,1007.13
2017-11-10T01:09:45.601Z,1007.11
2017-11-10T01:10:45.617Z,1007.13
2017-11-10T01:11:45.632Z,1007.08
2017-11-10T01:12:45.646Z,1007.07
2017-11-10T01:13:45.659Z,1007.09
2017-11-10T01:14:45.673Z,1007.04
2017-11-10T01:15:45.689Z,1007.03
2017-11-10T01:16:45.703Z,1007.02
2017-11-10T01:17:45.717Z,1007.05
2017-11-10T01:18:45.732Z,1006.99
2017-11-10T01:19:45.747Z,1006.98
2017-11-10T01:20:45.760Z,1006.93
2017-11-10T01:21:45.777Z,1006.95
2017-11-10T01:22:45.796Z,1006.88
2017-11-10T01:23:45.818Z,1006.93
2017-11-10T01:24:45.820Z,1006.95
2017-11-10T01:25:45.833Z,1006.93
2017-11-10T01:26:45.848Z,1006.98
2017-11-10T01:27:45.862Z,1007
2017-11-10T01:28:45.876Z,1007.02
2017-11-10T01:29:45.890Z,1007
2017-11-10T01:30:45.906Z,1007
2017-11-10T01:31:45.919Z,1006.99
2017-11-10T01:32:45.933Z,1006.95
2017-11-10T01:33:45.950Z,1006.92
2017-11-10T01:34:45.963Z,1006.92
2017-11-10T01:35:45.977Z,1006.87
2017-11-10T01:36:45.991Z,1006.87
2017-11-10T01:37:46.011Z,1006.84
2017-11-10T01:38:46.022Z,1006.79
2017-11-10T01:39:46.036Z,1006.82
2017-11-10T01:40:46.062Z,1006.77
2017-11-10T01:41:46.094Z,1006.77
2017-11-10T01:42:46.078Z,1006.77
2017-11-10T01:43:46.094Z,1006.78
2017-11-10T01:44:46.108Z,1006.77
2017-11-10T01:45:46.122Z,1006.82
2017-11-10T01:46:46.137Z,1006.83
2017-11-10T01:47:46.151Z,1006.83
2017-11-10T01:48:46.167Z,1006.83
2017-11-10T01:49:46.181Z,1006.81
2017-11-10T01:50:46.193Z,1006.77
2017-11-10T01:51:46.208Z,1006.78
2017-11-10T01:52:46.222Z,1006.74
2017-11-10T01:53:46.237Z,1006.72
2017-11-10T01:54:46.252Z,1006.76
2017-11-10T01:55:46.276Z,1006.7
2017-11-10T01:56:46.281Z,1006.69
2017-11-10T01:57:46.294Z,1006.67
2017-11-10T01:58:46.308Z,1006.64
2017-11-10T01:59:46.323Z,1006.67
2017-11-10T02:00:46.342Z,1006.63
2017-11-10T02:01:46.352Z,1006.66
2017-11-10T02:02:46.368Z,1006.65
2017-11-10T02:03:46.381Z,1006.65
2017-11-10T02:04:46.394Z,1006.63
2017-11-10T02:05:46.409Z,1006.65
2017-11-10T02:06:46.423Z,1006.64
2017-11-10T02:07:46.439Z,1006.66
2017-11-10T02:08:46.460Z,1006.65
2017-11-10T02:09:46.465Z,1006.67
2017-11-10T02:10:46.487Z,1006.68
2017-11-10T02:11:46.495Z,1006.67
2017-11-10T02:12:46.512Z,1006.67
2017-11-10T02:13:46.525Z,1006.74
2017-11-10T02:14:46.539Z,1006.73
2017-11-10T02:15:46.553Z,1006.66
2017-11-10T02:16:46.568Z,1006.65
2017-11-10T02:17:46.584Z,1006.67
2017-11-10T02:18:46.598Z,1006.66
2017-11-10T02:19:46.631Z,1006.61
2017-11-10T02:20:46.626Z,1006.61
2017-11-10T02:21:46.640Z,1006.66
2017-11-10T02:22:46.654Z,1006.59
2017-11-10T02:23:46.669Z,1006.6
2017-11-10T02:24:46.684Z,1006.52
2017-11-10T02:25:46.697Z,1006.56
2017-11-10T02:26:46.718Z,1006.51
2017-11-10T02:27:46.728Z,1006.56
2017-11-10T02:28:46.740Z,1006.51
2017-11-10T02:29:46.756Z,1006.49
2017-11-10T02:30:46.769Z,1006.42
2017-11-10T02:31:46.785Z,1006.42
2017-11-10T02:32:46.798Z,1006.43
2017-11-10T02:33:46.812Z,1006.39
2017-11-10T02:34:46.827Z,1006.35
2017-11-10T02:35:46.842Z,1006.32
2017-11-10T02:36:46.854Z,1006.25
2017-11-10T02:37:46.878Z,1006.24
2017-11-10T02:38:46.883Z,1006.26
2017-11-10T02:39:46.899Z,1006.23
2017-11-10T02:40:46.935Z,1006.23
2017-11-10T02:41:46.926Z,1006.19
2017-11-10T02:42:46.940Z,1006.15
2017-11-10T02:43:46.956Z,1006.12
2017-11-10T02:44:46.970Z,1006.09
2017-11-10T02:45:46.984Z,1006.05
2017-11-10T02:46:46.998Z,1006.03
2017-11-10T02:47:47.017Z,1006.02
2017-11-10T02:48:47.026Z,1006.02
2017-11-10T02:49:47.041Z,1006.03
2017-11-10T02:50:47.056Z,1006.01
2017-11-10T02:51:47.072Z,1005.91
2017-11-10T02:52:47.103Z,1006.01
2017-11-10T02:53:47.098Z,1005.99
2017-11-10T02:54:47.118Z,1005.93
2017-11-10T02:55:47.128Z,1005.9
2017-11-10T02:56:47.142Z,1005.85
2017-11-10T02:57:47.158Z,1005.86
2017-11-10T02:58:47.171Z,1005.87
2017-11-10T02:59:47.185Z,1005.88
2017-11-10T03:00:47.199Z,1005.85
2017-11-10T03:01:47.213Z,1005.93
2017-11-10T03:02:47.229Z,1005.9
2017-11-10T03:03:47.251Z,1005.88
2017-11-10T03:04:47.260Z,1005.82
2017-11-10T03:05:47.271Z,1005.73
2017-11-10T03:06:47.284Z,1005.71
2017-11-10T03:07:47.316Z,1005.72
2017-11-10T03:08:47.315Z,1005.71
2017-11-10T03:09:47.329Z,1005.68
2017-11-10T03:10:47.342Z,1005.72
2017-11-10T03:11:47.357Z,1005.66
2017-11-10T03:12:47.371Z,1005.65
2017-11-10T03:13:47.386Z,1005.59
2017-11-10T03:14:47.400Z,1005.62
2017-11-10T03:15:47.413Z,1005.61
2017-11-10T03:16:47.431Z,1005.53
2017-11-10T03:17:47.443Z,1005.44
2017-11-10T03:18:47.458Z,1005.39
2017-11-10T03:19:47.472Z,1005.38
2017-11-10T03:20:47.487Z,1005.38
2017-11-10T03:21:47.500Z,1005.37
2017-11-10T03:22:47.513Z,1005.35
2017-11-10T03:23:47.529Z,1005.39
2017-11-10T03:24:47.545Z,1005.44
2017-11-10T03:25:47.559Z,1005.45
2017-11-10T03:26:47.572Z,1005.43
2017-11-10T03:27:47.587Z,1005.47
2017-11-10T03:28:47.600Z,1005.47
2017-11-10T03:29:47.614Z,1005.46
2017-11-10T03:30:47.632Z,1005.41
2017-11-10T03:31:47.645Z,1005.4
2017-11-10T03:32:47.658Z,1005.34
2017-11-10T03:33:47.671Z,1005.32
2017-11-10T03:34:47.688Z,1005.32
2017-11-10T03:35:47.716Z,1005.3
2017-11-10T03:36:47.716Z,1005.29
2017-11-10T03:37:47.730Z,1005.31
2017-11-10T03:38:47.746Z,1005.27
2017-11-10T03:39:47.758Z,1005.34
2017-11-10T03:40:47.773Z,1005.34
2017-11-10T03:41:47.787Z,1005.38
2017-11-10T03:42:47.802Z,1005.33
2017-11-10T03:43:47.815Z,1005.29
2017-11-10T03:44:47.831Z,1005.24
2017-11-10T03:45:47.845Z,1005.23
2017-11-10T03:46:47.861Z,1005.27
2017-11-10T03:47:47.874Z,1005.2
2017-11-10T03:48:47.898Z,1005.21
2017-11-10T03:49:47.902Z,1005.19
2017-11-10T03:50:48.287Z,1005.17
2017-11-10T03:51:47.934Z,1005.18
2017-11-10T03:52:47.948Z,1005.24
2017-11-10T03:53:47.962Z,1005.19
2017-11-10T03:54:47.976Z,1005.16
2017-11-10T03:55:48.044Z,1005.15
2017-11-10T03:56:48.004Z,1005.06
2017-11-10T03:57:48.017Z,1004.96
2017-11-10T03:58:48.031Z,1005
2017-11-10T03:59:48.048Z,1005.02
2017-11-10T04:00:48.063Z,1004.97
2017-11-10T04:01:48.080Z,1004.96
2017-11-10T04:02:48.089Z,1004.95
2017-11-10T04:03:48.105Z,1004.89
2017-11-10T04:04:48.121Z,1004.98
2017-11-10T04:05:48.138Z,1004.97
2017-11-10T04:06:48.153Z,1004.9
2017-11-10T04:07:48.162Z,1004.94
2017-11-10T04:08:48.179Z,1004.94
2017-11-10T04:09:48.193Z,1004.93
2017-11-10T04:10:48.205Z,1004.97
2017-11-10T04:11:48.221Z,1004.96
2017-11-10T04:12:48.235Z,1004.91
2017-11-10T04:13:48.252Z,1004.98
2017-11-10T04:14:48.270Z,1004.98
2017-11-10T04:15:48.280Z,1004.97
2017-11-10T04:16:48.299Z,1004.93
2017-11-10T04:17:48.305Z,1004.92
2017-11-10T04:18:48.333Z,1004.87
2017-11-10T04:19:48.335Z,1004.86
2017-11-10T04:20:48.347Z,1004.84
2017-11-10T04:21:48.363Z,1004.81
2017-11-10T04:22:48.378Z,1004.82
2017-11-10T04:23:48.391Z,1004.8
2017-11-10T04:24:48.409Z,1004.81
2017-11-10T04:25:48.421Z,1004.8
2017-11-10T04:26:48.437Z,1004.85
2017-11-10T04:27:48.449Z,1004.82
2017-11-10T04:28:48.463Z,1004.85
2017-11-10T04:29:48.487Z,1004.81
2017-11-10T04:30:48.493Z,1004.83
2017-11-10T04:31:48.508Z,1004.84
2017-11-10T04:32:48.522Z,1004.83
2017-11-10T04:33:48.536Z,1004.82
2017-11-10T04:34:48.549Z,1004.79
2017-11-10T04:35:48.564Z,1004.74
2017-11-10T04:36:48.579Z,1004.73
2017-11-10T04:37:48.594Z,1004.68
2017-11-10T04:38:48.607Z,1004.65
2017-11-10T04:39:48.622Z,1004.67
2017-11-10T04:40:48.644Z,1004.69
2017-11-10T04:41:48.651Z,1004.75
2017-11-10T04:42:48.665Z,1004.82
2017-11-10T04:43:48.680Z,1004.82
2017-11-10T04:44:48.694Z,1004.77
2017-11-10T04:45:48.715Z,1004.72
2017-11-10T04:46:48.722Z,1004.73
2017-11-10T04:47:48.737Z,1004.76
2017-11-10T04:48:48.751Z,1004.79
2017-11-10T04:49:48.771Z,1004.87
2017-11-10T04:50:48.781Z,1004.89
2017-11-10T04:51:48.796Z,1004.89
2017-11-10T04:52:48.810Z,1004.84
2017-11-10T04:53:48.822Z,1004.78
2017-11-10T04:54:48.837Z,1004.83
2017-11-10T04:55:48.853Z,1004.84
2017-11-10T04:56:48.875Z,1004.83
2017-11-10T04:57:48.880Z,1004.87
2017-11-10T04:58:48.896Z,1004.8
2017-11-10T04:59:48.910Z,1004.82
2017-11-10T05:00:48.941Z,1004.81
2017-11-10T05:01:48.938Z,1004.86
2017-11-10T05:02:48.962Z,1004.81
2017-11-10T05:03:48.966Z,1004.8
2017-11-10T05:04:48.981Z,1004.84
2017-11-10T05:05:48.995Z,1004.83
2017-11-10T05:06:49.010Z,1004.83
2017-11-10T05:07:49.024Z,1004.8
2017-11-10T05:08:49.040Z,1004.76
2017-11-10T05:09:49.053Z,1004.75
2017-11-10T05:10:49.067Z,1004.72
2017-11-10T05:11:49.395Z,1004.77
2017-11-10T05:12:49.097Z,1004.73
2017-11-10T05:13:49.111Z,1004.74
2017-11-10T05:14:49.126Z,1004.74
2017-11-10T05:15:49.138Z,1004.74
2017-11-10T05:16:49.153Z,1004.68
2017-11-10T05:17:49.168Z,1004.7
2017-11-10T05:18:49.181Z,1004.64
2017-11-10T05:19:49.196Z,1004.64
2017-11-10T05:20:49.211Z,1004.64
2017-11-10T05:21:49.226Z,1004.63
2017-11-10T05:22:49.246Z,1004.65
2017-11-10T05:23:49.255Z,1004.65
2017-11-10T05:24:49.269Z,1004.68
2017-11-10T05:25:49.283Z,1004.69
2017-11-10T05:26:49.297Z,1004.65
2017-11-10T05:27:49.314Z,1004.65
2017-11-10T05:28:49.327Z,1004.64
2017-11-10T05:29:49.340Z,1004.59
2017-11-10T05:30:49.354Z,1004.51
2017-11-10T05:31:49.385Z,1004.56
2017-11-10T05:32:49.383Z,1004.55
2017-11-10T05:33:49.399Z,1004.52
2017-11-10T05:34:49.411Z,1004.52
2017-11-10T05:35:49.426Z,1004.53
2017-11-10T05:36:49.440Z,1004.51
2017-11-10T05:37:49.456Z,1004.51
2017-11-10T05:38:49.473Z,1004.5
2017-11-10T05:39:49.484Z,1004.54
2017-11-10T05:40:49.498Z,1004.52
2017-11-10T05:41:49.513Z,1004.56
2017-11-10T05:42:49.527Z,1004.57
2017-11-10T05:43:49.540Z,1004.54
2017-11-10T05:44:49.555Z,1004.56
2017-11-10T05:45:49.571Z,1004.53
2017-11-10T05:46:49.586Z,1004.54
2017-11-10T05:47:49.599Z,1004.54
2017-11-10T05:48:49.613Z,1004.57
2017-11-10T05:49:49.628Z,1004.55
2017-11-10T05:50:49.641Z,1004.53
2017-11-10T05:51:49.659Z,1004.55
2017-11-10T05:52:49.671Z,1004.49
2017-11-10T05:53:49.685Z,1004.52
2017-11-10T05:54:49.699Z,1004.51
2017-11-10T05:55:49.712Z,1004.48
2017-11-10T05:56:49.727Z,1004.54
2017-11-10T05:57:49.742Z,1004.49
2017-11-10T05:58:49.755Z,1004.46
2017-11-10T05:59:49.770Z,1004.5
2017-11-10T06:00:49.785Z,1004.46
2017-11-10T06:01:49.801Z,1004.53
2017-11-10T06:02:49.812Z,1004.54
2017-11-10T06:03:49.828Z,1004.49
2017-11-10T06:04:49.841Z,1004.46
2017-11-10T06:05:49.862Z,1004.46
2017-11-10T06:06:49.871Z,1004.45
2017-11-10T06:07:49.885Z,1004.42
2017-11-10T06:08:49.901Z,1004.39
2017-11-10T06:09:49.913Z,1004.41
2017-11-10T06:10:49.944Z,1004.46
2017-11-10T06:11:49.943Z,1004.5
2017-11-10T06:12:49.956Z,1004.46
2017-11-10T06:13:49.978Z,1004.47
2017-11-10T06:14:49.985Z,1004.5
2017-11-10T06:15:50.000Z,1004.45
2017-11-10T06:16:50.013Z,1004.45
2017-11-10T06:17:50.027Z,1004.46
2017-11-10T06:18:50.045Z,1004.53
2017-11-10T06:19:50.073Z,1004.5
2017-11-10T06:20:50.071Z,1004.49
2017-11-10T06:21:50.084Z,1004.55
2017-11-10T06:22:50.100Z,1004.51
2017-11-10T06:23:50.112Z,1004.48
2017-11-10T06:24:50.128Z,1004.5
2017-11-10T06:25:50.142Z,1004.51
2017-11-10T06:26:50.157Z,1004.49
2017-11-10T06:27:50.170Z,1004.49
2017-11-10T06:28:50.186Z,1004.49
2017-11-10T06:29:50.199Z,1004.46
2017-11-10T06:30:50.215Z,1004.46
2017-11-10T06:31:50.238Z,1004.46
2017-11-10T06:32:50.242Z,1004.45
2017-11-10T06:33:50.256Z,1004.44
2017-11-10T06:34:50.272Z,1004.45
2017-11-10T06:35:50.284Z,1004.43
2017-11-10T06:36:50.299Z,1004.43
2017-11-10T06:37:50.314Z,1004.42
2017-11-10T06:38:50.326Z,1004.43
2017-11-10T06:39:50.341Z,1004.4
2017-11-10T06:40:50.355Z,1004.38
2017-11-10T06:41:50.382Z,1004.36
2017-11-10T06:42:50.383Z,1004.34
2017-11-10T06:43:50.400Z,1004.33
2017-11-10T06:44:50.415Z,1004.3
2017-11-10T06:45:50.428Z,1004.3
2017-11-10T06:46:50.443Z,1004.33
2017-11-10T06:47:50.456Z,1004.29
2017-11-10T06:48:50.491Z,1004.27
2017-11-10T06:49:50.488Z,1004.27
2017-11-10T06:50:50.503Z,1004.22
2017-11-10T06:51:50.514Z,1004.23
2017-11-10T06:52:50.528Z,1004.24
2017-11-10T06:53:50.541Z,1004.19
2017-11-10T06:54:50.556Z,1004.25
2017-11-10T06:55:50.571Z,1004.25
2017-11-10T06:56:50.584Z,1004.24
2017-11-10T06:57:50.602Z,1004.2
2017-11-10T06:58:50.615Z,1004.21
2017-11-10T06:59:50.629Z,1004.19
2017-11-10T07:00:50.644Z,1004.17
2017-11-10T07:01:50.658Z,1004.18
2017-11-10T07:02:50.671Z,1004.16
2017-11-10T07:03:50.688Z,1004.21
2017-11-10T07:04:50.700Z,1004.17
2017-11-10T07:05:50.714Z,1004.15
2017-11-10T07:06:50.729Z,1004.18
2017-11-10T07:07:50.743Z,1004.18
2017-11-10T07:08:50.759Z,1004.16
2017-11-10T07:09:50.772Z,1004.15
2017-11-10T07:10:50.788Z,1004.19
2017-11-10T07:11:50.802Z,1004.21
2017-11-10T07:12:50.815Z,1004.2
2017-11-10T07:13:50.832Z,1004.22
2017-11-10T07:14:50.844Z,1004.2
2017-11-10T07:15:50.857Z,1004.16
2017-11-10T07:16:50.889Z,1004.14
2017-11-10T07:17:50.887Z,1004.14
2017-11-10T07:18:50.901Z,1004.16
2017-11-10T07:19:50.917Z,1004.13
2017-11-10T07:20:50.930Z,1004.12
2017-11-10T07:21:50.944Z,1004.09
2017-11-10T07:22:50.957Z,1004.12
2017-11-10T07:23:50.972Z,1004.1
2017-11-10T07:24:50.989Z,1004.08
2017-11-10T07:25:51.002Z,1004.06
2017-11-10T07:26:51.014Z,1004.05
2017-11-10T07:27:51.032Z,1004.02
2017-11-10T07:28:51.048Z,1004.11
2017-11-10T07:29:51.057Z,1004.04
2017-11-10T07:30:51.072Z,1004.06
2017-11-10T07:31:51.086Z,1004.02
2017-11-10T07:32:51.101Z,1004.02
2017-11-10T07:33:51.119Z,1004.02
2017-11-10T07:34:51.131Z,1003.99
2017-11-10T07:35:51.145Z,1004
2017-11-10T07:36:51.160Z,1003.96
2017-11-10T07:37:51.172Z,1003.98
2017-11-10T07:38:51.194Z,1003.96
2017-11-10T07:39:51.202Z,1003.96
2017-11-10T07:40:51.215Z,1004
2017-11-10T07:41:51.230Z,1004.01
2017-11-10T07:42:51.255Z,1003.98
2017-11-10T07:43:51.259Z,1003.93
2017-11-10T07:44:51.273Z,1003.96
2017-11-10T07:45:51.287Z,1003.92
2017-11-10T07:46:51.311Z,1003.96
2017-11-10T07:47:51.316Z,1003.98
2017-11-10T07:48:51.331Z,1003.92
2017-11-10T07:49:51.345Z,1003.91
2017-11-10T07:50:51.361Z,1003.89
2017-11-10T07:51:51.375Z,1003.89
2017-11-10T07:52:51.389Z,1003.92
2017-11-10T07:53:51.404Z,1003.94
2017-11-10T07:54:51.418Z,1003.9
2017-11-10T07:55:51.432Z,1003.9
2017-11-10T07:56:51.445Z,1003.87
2017-11-10T07:57:51.461Z,1003.9
2017-11-10T07:58:51.484Z,1003.88
2017-11-10T07:59:51.489Z,1003.86
2017-11-10T08:00:52.718Z,1003.9
2017-11-10T08:01:51.519Z,1003.9
2017-11-10T08:02:51.531Z,1003.91
2017-11-10T08:03:51.547Z,1003.89
2017-11-10T08:04:51.561Z,1003.89
2017-11-10T08:05:51.576Z,1003.96
2017-11-10T08:06:51.591Z,1003.89
2017-11-10T08:07:51.606Z,1003.9
2017-11-10T08:08:51.620Z,1003.88
2017-11-10T08:09:51.639Z,1003.86
2017-11-10T08:10:51.649Z,1003.86
2017-11-10T08:11:51.661Z,1003.87
2017-11-10T08:12:51.676Z,1003.83
2017-11-10T08:13:51.691Z,1003.83
2017-11-10T08:14:51.705Z,1003.8
2017-11-10T08:15:51.926Z,1003.85
2017-11-10T08:16:51.736Z,1003.84
2017-11-10T08:17:51.749Z,1003.81
2017-11-10T08:18:51.763Z,1003.77
2017-11-10T08:19:51.780Z,1003.74
2017-11-10T08:20:51.798Z,1003.67
2017-11-10T08:21:51.807Z,1003.66
2017-11-10T08:22:51.821Z,1003.63
2017-11-10T08:23:51.836Z,1003.61
2017-11-10T08:24:51.850Z,1003.55
2017-11-10T08:25:51.865Z,1003.53
2017-11-10T08:26:51.880Z,1003.53
2017-11-10T08:27:51.894Z,1003.55
2017-11-10T08:28:51.908Z,1003.52
2017-11-10T08:29:51.923Z,1003.49
2017-11-10T08:30:51.938Z,1003.49
2017-11-10T08:31:51.953Z,1003.47
2017-11-10T08:32:51.970Z,1003.43
2017-11-10T08:33:51.983Z,1003.42
2017-11-10T08:34:51.997Z,1003.4
2017-11-10T08:35:52.013Z,1003.37
2017-11-10T08:36:52.027Z,1003.39
2017-11-10T08:37:52.041Z,1003.36
2017-11-10T08:38:52.055Z,1003.3
2017-11-10T08:39:52.070Z,1003.31
2017-11-10T08:40:52.085Z,1003.25
2017-11-10T08:41:52.100Z,1003.2
2017-11-10T08:42:52.115Z,1003.19
2017-11-10T08:43:52.130Z,1003.18
2017-11-10T08:44:52.144Z,1003.18
2017-11-10T08:45:52.162Z,1003.14
2017-11-10T08:46:52.173Z,1003.11
2017-11-10T08:47:52.189Z,1003.1
2017-11-10T08:48:52.202Z,1003.05
2017-11-10T08:49:52.217Z,1003.03
2017-11-10T08:50:52.233Z,1003.09
2017-11-10T08:51:52.246Z,1003
2017-11-10T08:52:52.262Z,1003.04
2017-11-10T08:53:52.274Z,1002.97
2017-11-10T08:54:52.290Z,1003.01
2017-11-10T08:55:52.304Z,1002.97
2017-11-10T08:56:52.320Z,1002.96
2017-11-10T08:57:52.333Z,1002.93
2017-11-10T08:58:52.351Z,1002.9
2017-11-10T08:59:52.370Z,1002.85
2017-11-10T09:00:52.377Z,1002.82
2017-11-10T09:01:52.394Z,1002.77
2017-11-10T09:02:52.408Z,1002.76
2017-11-10T09:03:52.422Z,1002.71
2017-11-10T09:04:52.438Z,1002.72
2017-11-10T09:05:52.452Z,1002.7
2017-11-10T09:06:52.465Z,1002.71
2017-11-10T09:07:52.481Z,1002.68
2017-11-10T09:08:52.501Z,1002.67
2017-11-10T09:09:52.513Z,1002.71
2017-11-10T09:10:52.525Z,1002.73
2017-11-10T09:11:52.540Z,1002.69
2017-11-10T09:12:52.552Z,1002.72
2017-11-10T09:13:52.568Z,1002.71
2017-11-10T09:14:52.583Z,1002.68
2017-11-10T09:15:52.597Z,1002.64
2017-11-10T09:16:52.613Z,1002.64
2017-11-10T09:17:52.628Z,1002.66
2017-11-10T09:18:52.642Z,1002.63
2017-11-10T09:19:52.660Z,1002.57
2017-11-10T09:20:52.677Z,1002.52
2017-11-10T09:21:52.687Z,1002.54
2017-11-10T09:22:52.702Z,1002.56
2017-11-10T09:23:52.714Z,1002.55
2017-11-10T09:24:52.734Z,1002.48
2017-11-10T09:25:52.745Z,1002.51
2017-11-10T09:26:52.760Z,1002.47
2017-11-10T09:27:52.775Z,1002.49
2017-11-10T09:28:52.791Z,1002.44
2017-11-10T09:29:52.803Z,1002.44
2017-11-10T09:30:52.819Z,1002.44
2017-11-10T09:31:52.839Z,1002.4
2017-11-10T09:32:52.848Z,1002.43
2017-11-10T09:33:52.864Z,1002.45
2017-11-10T09:34:52.875Z,1002.42
2017-11-10T09:35:52.892Z,1002.39
2017-11-10T09:36:52.907Z,1002.37
2017-11-10T09:37:52.921Z,1002.39
2017-11-10T09:38:52.937Z,1002.34
2017-11-10T09:39:52.952Z,1002.33
2017-11-10T09:40:52.967Z,1002.35
2017-11-10T09:41:52.981Z,1002.37
2017-11-10T09:42:52.994Z,1002.41
2017-11-10T09:43:53.010Z,1002.41
2017-11-10T09:44:53.030Z,1002.4
2017-11-10T09:45:53.040Z,1002.38
2017-11-10T09:46:53.054Z,1002.36
2017-11-10T09:47:53.070Z,1002.36
2017-11-10T09:48:53.091Z,1002.31
2017-11-10T09:49:53.100Z,1002.34
2017-11-10T09:50:53.116Z,1002.29
2017-11-10T09:51:53.130Z,1002.25
2017-11-10T09:52:53.143Z,1002.23
2017-11-10T09:53:53.158Z,1002.13
2017-11-10T09:54:53.174Z,1002.1
2017-11-10T09:55:53.189Z,1002.13
2017-11-10T09:56:53.202Z,1002.1
2017-11-10T09:57:53.218Z,1002.03
2017-11-10T09:58:53.233Z,1002.06
2017-11-10T09:59:53.246Z,1002.04
2017-11-10T10:00:53.261Z,1002.09
2017-11-10T10:01:53.288Z,1002.08
2017-11-10T10:02:53.294Z,1002.1
2017-11-10T10:03:53.306Z,1002.07
2017-11-10T10:04:53.327Z,1002.07
2017-11-10T10:05:53.337Z,1002.04
2017-11-10T10:06:53.353Z,1002.01
2017-11-10T10:07:53.368Z,1001.93
2017-11-10T10:08:53.382Z,1001.99
2017-11-10T10:09:53.398Z,1001.97
2017-11-10T10:10:53.410Z,1002.01
2017-11-10T10:11:53.428Z,1002.04
2017-11-10T10:12:53.441Z,1002.05
2017-11-10T10:13:53.457Z,1001.95
2017-11-10T10:14:53.470Z,1001.98
2017-11-10T10:15:53.495Z,1001.99
2017-11-10T10:16:53.501Z,1001.87
2017-11-10T10:17:53.514Z,1001.94
2017-11-10T10:18:53.531Z,1001.86
2017-11-10T10:19:53.553Z,1001.91
2017-11-10T10:20:53.560Z,1001.82
2017-11-10T10:21:53.576Z,1001.81
2017-11-10T10:22:53.591Z,1001.76
2017-11-10T10:23:53.604Z,1001.65
2017-11-10T10:24:53.621Z,1001.67
2017-11-10T10:25:53.637Z,1001.67
2017-11-10T10:26:53.661Z,1001.66
2017-11-10T10:27:53.665Z,1001.72
2017-11-10T10:28:53.686Z,1001.62
2017-11-10T10:29:53.694Z,1001.68
2017-11-10T10:30:53.709Z,1001.61
2017-11-10T10:31:53.726Z,1001.64
2017-11-10T10:32:53.739Z,1001.68
2017-11-10T10:33:53.753Z,1001.67
2017-11-10T10:34:53.768Z,1001.64
2017-11-10T10:35:53.792Z,1001.57
2017-11-10T10:36:53.799Z,1001.56
2017-11-10T10:37:53.813Z,1001.52
2017-11-10T10:38:53.829Z,1001.55
2017-11-10T10:39:53.843Z,1001.52
2017-11-10T10:40:53.858Z,1001.45
2017-11-10T10:41:53.873Z,1001.49
2017-11-10T10:42:53.889Z,1001.53
2017-11-10T10:43:53.954Z,1001.4
2017-11-10T10:44:53.921Z,1001.36
2017-11-10T10:45:53.942Z,1001.39
2017-11-10T10:46:53.949Z,1001.38
2017-11-10T10:47:53.966Z,1001.32
2017-11-10T10:48:53.980Z,1001.35
2017-11-10T10:49:53.999Z,1001.23
2017-11-10T10:50:54.007Z,1001.23
2017-11-10T10:51:54.029Z,1001.3
2017-11-10T10:52:54.038Z,1001.27
2017-11-10T10:53:54.058Z,1001.19
2017-11-10T10:54:54.069Z,1001.16
2017-11-10T10:55:54.083Z,1001.12
2017-11-10T10:56:54.097Z,1001.09
2017-11-10T10:57:54.114Z,1001.05
2017-11-10T10:58:54.129Z,1000.97
2017-11-10T10:59:54.144Z,1000.96
2017-11-10T11:00:54.158Z,1000.94
2017-11-10T11:01:54.174Z,1000.97
2017-11-10T11:02:54.187Z,1000.95
2017-11-10T11:03:54.208Z,1000.92
2017-11-10T11:04:54.218Z,1000.9
2017-11-10T11:05:54.235Z,1000.89
2017-11-10T11:06:54.250Z,1000.92
2017-11-10T11:07:54.265Z,1000.9
2017-11-10T11:08:54.281Z,1000.91
2017-11-10T11:09:54.293Z,1000.84
2017-11-10T11:10:54.322Z,1000.87
2017-11-10T11:11:54.325Z,1000.84
2017-11-10T11:12:54.338Z,1000.8
2017-11-10T11:13:54.353Z,1000.8
2017-11-10T11:14:54.370Z,1000.78
2017-11-10T11:15:54.384Z,1000.87
2017-11-10T11:16:54.399Z,1000.75
2017-11-10T11:17:54.415Z,1000.72
2017-11-10T11:18:54.430Z,1000.76
2017-11-10T11:19:54.449Z,1000.73
2017-11-10T11:20:54.460Z,1000.69
2017-11-10T11:21:54.474Z,1000.7
2017-11-10T11:22:54.491Z,1000.67
2017-11-10T11:23:54.503Z,1000.63
2017-11-10T11:24:54.542Z,1000.65
2017-11-10T11:25:54.536Z,1000.65
2017-11-10T11:26:54.550Z,1000.61
2017-11-10T11:27:54.564Z,1000.53
2017-11-10T11:28:54.583Z,1000.51
2017-11-10T11:29:54.594Z,1000.4
2017-11-10T11:30:54.611Z,1000.35
2017-11-10T11:31:54.625Z,1000.33
2017-11-10T11:32:54.643Z,1000.32
2017-11-10T11:33:54.655Z,1000.37
2017-11-10T11:34:54.673Z,1000.29
2017-11-10T11:35:54.686Z,1000.24
2017-11-10T11:36:54.701Z,1000.19
2017-11-10T11:37:54.729Z,1000.19
2017-11-10T11:38:54.730Z,1000.17
2017-11-10T11:39:54.743Z,1000.13
2017-11-10T11:40:54.761Z,1000.08
2017-11-10T11:41:54.778Z,1000.05
2017-11-10T11:42:54.792Z,1000.1
2017-11-10T11:43:54.807Z,1000.08
2017-11-10T11:44:54.822Z,1000.01
2017-11-10T11:45:54.837Z,1000.02
2017-11-10T11:46:54.861Z,1000.02
2017-11-10T11:47:54.869Z,1000
2017-11-10T11:48:54.883Z,1000
2017-11-10T11:49:54.897Z,1000.05
2017-11-10T11:50:54.913Z,999.99
2017-11-10T11:51:54.932Z,999.95
2017-11-10T11:52:54.943Z,999.9
2017-11-10T11:53:54.958Z,999.89
2017-11-10T11:54:54.975Z,999.87
2017-11-10T11:55:54.989Z,999.81
2017-11-10T11:56:55.004Z,999.78
2017-11-10T11:57:55.019Z,999.8
2017-11-10T11:58:55.035Z,999.77
2017-11-10T11:59:55.050Z,999.73
2017-11-10T12:00:55.064Z,999.71
2017-11-10T12:01:55.079Z,999.65
2017-11-10T12:02:55.096Z,999.63
2017-11-10T12:03:55.111Z,999.66
2017-11-10T12:04:55.125Z,999.66
2017-11-10T12:05:55.141Z,999.68
2017-11-10T12:06:55.161Z,999.66
2017-11-10T12:07:55.171Z,999.65
2017-11-10T12:08:55.186Z,999.61
2017-11-10T12:09:55.202Z,999.63